createdAt,value
2022-10-01T00:00:23.917Z,0.00
2022-10-01T00:01:23.966Z,0.00
2022-10-01T00:02:23.990Z,0.00
2022-10-01T00:03:23.879Z,0.00
2022-10-01T00:04:23.870Z,0.00
2022-10-01T00:05:23.859Z,0.00
2022-10-01T00:06:23.853Z,0.00
2022-10-01T00:07:23.840Z,0.00
2022-10-01T00:08:24.014Z,0.00
2022-10-01T00:09:23.824Z,0.00
2022-10-01T00:10:23.808Z,0.00
2022-10-01T00:11:23.799Z,0.00
2022-10-01T00:12:23.789Z,0.00
2022-10-01T00:13:23.773Z,0.00
2022-10-01T00:14:23.858Z,0.00
2022-10-01T00:15:23.756Z,0.00
2022-10-01T00:16:23.794Z,0.00
2022-10-01T00:17:23.733Z,0.00
2022-10-01T00:18:23.722Z,0.00
2022-10-01T00:19:23.822Z,0.00
2022-10-01T00:20:23.808Z,0.00
2022-10-01T00:21:23.705Z,0.00
2022-10-01T00:22:23.680Z,0.00
2022-10-01T00:23:23.666Z,0.00
2022-10-01T00:24:23.685Z,0.00
2022-10-01T00:25:23.659Z,0.00
2022-10-01T00:26:23.697Z,0.00
2022-10-01T00:27:23.625Z,0.00
2022-10-01T00:28:23.678Z,0.00
2022-10-01T00:29:23.716Z,0.00
2022-10-01T00:30:23.597Z,0.00
2022-10-01T00:31:23.703Z,0.00
2022-10-01T00:32:23.573Z,0.00
2022-10-01T00:33:23.564Z,0.00
2022-10-01T00:34:23.605Z,0.00
2022-10-01T00:35:23.551Z,0.00
2022-10-01T00:36:23.531Z,0.00
2022-10-01T00:37:23.595Z,0.00
2022-10-01T00:38:23.511Z,0.00
2022-10-01T00:39:23.516Z,0.00
2022-10-01T00:40:23.508Z,0.00
2022-10-01T00:41:23.484Z,0.00
2022-10-01T00:42:23.521Z,0.00
2022-10-01T00:43:23.452Z,0.00
2022-10-01T00:44:23.444Z,0.00
2022-10-01T00:45:23.447Z,0.00
2022-10-01T00:46:23.480Z,0.00
2022-10-01T00:47:23.413Z,0.00
2022-10-01T00:48:23.474Z,0.00
2022-10-01T00:49:23.385Z,0.00
2022-10-01T00:50:23.375Z,0.00
2022-10-01T00:51:23.379Z,0.00
2022-10-01T00:52:23.359Z,0.00
2022-10-01T00:53:23.346Z,0.00
2022-10-01T00:54:23.404Z,0.00
2022-10-01T00:55:23.327Z,0.00
2022-10-01T00:56:23.350Z,0.00
2022-10-01T00:57:23.304Z,0.00
2022-10-01T00:58:23.293Z,0.00
2022-10-01T00:59:23.283Z,0.00
2022-10-01T01:00:23.289Z,0.00
2022-10-01T01:01:23.318Z,0.00
2022-10-01T01:02:23.308Z,0.00
2022-10-01T01:03:23.239Z,0.00
2022-10-01T01:04:23.227Z,0.00
2022-10-01T01:05:23.230Z,0.00
2022-10-01T01:06:23.326Z,0.00
2022-10-01T01:07:23.207Z,0.00
2022-10-01T01:08:23.186Z,0.00
2022-10-01T01:09:23.180Z,0.00
2022-10-01T01:10:23.161Z,0.00
2022-10-01T01:11:23.158Z,0.00
2022-10-01T01:12:23.210Z,0.00
2022-10-01T01:13:23.144Z,0.00
2022-10-01T01:14:23.119Z,0.00
2022-10-01T01:15:23.111Z,0.00
2022-10-01T01:16:23.234Z,0.00
2022-10-01T01:17:23.090Z,0.00
2022-10-01T01:18:23.084Z,0.00
2022-10-01T01:19:23.129Z,0.00
2022-10-01T01:20:23.056Z,0.00
2022-10-01T01:21:23.046Z,0.00
2022-10-01T01:22:23.047Z,0.00
2022-10-01T01:23:23.023Z,0.00
2022-10-01T01:24:23.010Z,0.00
2022-10-01T01:25:23.081Z,0.00
2022-10-01T01:26:23.006Z,0.00
2022-10-01T01:27:22.980Z,0.00
2022-10-01T01:28:23.084Z,0.00
2022-10-01T01:29:22.961Z,0.00
2022-10-01T01:30:23.164Z,0.00
2022-10-01T01:31:23.071Z,0.00
2022-10-01T01:32:22.942Z,0.00
2022-10-01T01:33:22.917Z,0.00
2022-10-01T01:34:22.919Z,0.00
2022-10-01T01:35:22.900Z,0.00
2022-10-01T01:36:22.887Z,0.00
2022-10-01T01:37:22.944Z,0.00
2022-10-01T01:38:22.873Z,0.00
2022-10-01T01:39:22.857Z,0.00
2022-10-01T01:40:22.848Z,0.00
2022-10-01T01:41:22.834Z,0.00
2022-10-01T01:42:22.820Z,0.00
2022-10-01T01:43:22.891Z,0.00
2022-10-01T01:44:22.825Z,0.00
2022-10-01T01:45:22.791Z,0.00
2022-10-01T01:46:22.897Z,0.00
2022-10-01T01:47:22.768Z,0.00
2022-10-01T01:48:22.757Z,0.00
2022-10-01T01:49:22.763Z,0.00
2022-10-01T01:50:22.749Z,0.00
2022-10-01T01:51:22.728Z,0.00
2022-10-01T01:52:22.713Z,0.00
2022-10-01T01:53:22.701Z,0.00
2022-10-01T01:54:22.695Z,0.00
2022-10-01T01:55:22.768Z,0.00
2022-10-01T01:56:22.673Z,0.00
2022-10-01T01:57:22.664Z,0.00
2022-10-01T01:58:22.654Z,0.00
2022-10-01T01:59:22.650Z,0.00
2022-10-01T02:00:22.672Z,0.00
2022-10-01T02:01:22.705Z,0.00
2022-10-01T02:02:22.681Z,0.00
2022-10-01T02:03:22.600Z,0.00
2022-10-01T02:04:22.589Z,0.00
2022-10-01T02:05:22.576Z,0.00
2022-10-01T02:06:22.577Z,0.00
2022-10-01T02:07:22.649Z,0.00
2022-10-01T02:08:22.542Z,0.00
2022-10-01T02:09:22.532Z,0.00
2022-10-01T02:10:22.533Z,0.00
2022-10-01T02:11:22.513Z,0.00
2022-10-01T02:12:22.500Z,0.00
2022-10-01T02:13:22.552Z,0.00
2022-10-01T02:14:22.478Z,0.00
2022-10-01T02:15:22.484Z,0.00
2022-10-01T02:16:22.571Z,0.00
2022-10-01T02:17:22.445Z,0.00
2022-10-01T02:18:22.448Z,0.00
2022-10-01T02:19:22.504Z,0.00
2022-10-01T02:20:22.445Z,0.00
2022-10-01T02:21:22.419Z,0.00
2022-10-01T02:22:22.394Z,0.00
2022-10-01T02:23:22.382Z,0.00
2022-10-01T02:24:22.379Z,0.00
2022-10-01T02:25:22.445Z,0.00
2022-10-01T02:26:22.348Z,0.00
2022-10-01T02:27:22.353Z,0.00
2022-10-01T02:28:22.366Z,0.00
2022-10-01T02:29:22.319Z,0.00
2022-10-01T02:30:22.307Z,0.00
2022-10-01T02:31:22.428Z,0.00
2022-10-01T02:32:22.314Z,0.00
2022-10-01T02:33:22.286Z,0.00
2022-10-01T02:34:22.260Z,0.00
2022-10-01T02:35:22.250Z,0.00
2022-10-01T02:36:22.245Z,0.00
2022-10-01T02:37:22.321Z,0.00
2022-10-01T02:38:22.233Z,0.00
2022-10-01T02:39:22.223Z,0.00
2022-10-01T02:40:22.197Z,0.00
2022-10-01T02:41:22.188Z,0.00
2022-10-01T02:42:22.178Z,0.00
2022-10-01T02:43:22.187Z,0.00
2022-10-01T02:44:22.167Z,0.00
2022-10-01T02:45:22.153Z,0.00
2022-10-01T02:46:22.234Z,0.00
2022-10-01T02:47:22.126Z,0.00
2022-10-01T02:48:22.139Z,0.00
2022-10-01T02:49:22.222Z,0.00
2022-10-01T02:50:22.097Z,0.00
2022-10-01T02:51:22.080Z,0.00
2022-10-01T02:52:22.070Z,0.00
2022-10-01T02:53:22.084Z,0.00
2022-10-01T02:54:22.368Z,0.00
2022-10-01T02:55:22.055Z,0.00
2022-10-01T02:56:22.028Z,0.00
2022-10-01T02:57:22.018Z,0.00
2022-10-01T02:58:22.217Z,0.00
2022-10-01T02:59:21.998Z,0.00
2022-10-01T03:00:21.999Z,0.00
2022-10-01T03:01:22.080Z,0.00
2022-10-01T03:02:22.069Z,0.00
2022-10-01T03:03:21.950Z,0.00
2022-10-01T03:04:21.964Z,0.00
2022-10-01T03:05:21.939Z,0.00
2022-10-01T03:06:21.932Z,0.00
2022-10-01T03:07:22.040Z,0.00
2022-10-01T03:08:21.901Z,0.00
2022-10-01T03:09:21.888Z,0.00
2022-10-01T03:10:21.889Z,0.00
2022-10-01T03:11:21.895Z,0.00
2022-10-01T03:12:21.856Z,0.00
2022-10-01T03:13:21.943Z,0.00
2022-10-01T03:14:21.836Z,0.00
2022-10-01T03:15:21.826Z,0.00
2022-10-01T03:16:21.887Z,0.00
2022-10-01T03:17:21.816Z,0.00
2022-10-01T03:18:21.793Z,0.00
2022-10-01T03:19:21.807Z,0.00
2022-10-01T03:20:21.794Z,0.00
2022-10-01T03:21:21.883Z,0.00
2022-10-01T03:22:21.745Z,0.00
2022-10-01T03:23:21.735Z,0.00
2022-10-01T03:24:21.724Z,0.00
2022-10-01T03:25:21.777Z,0.00
2022-10-01T03:26:21.720Z,0.00
2022-10-01T03:27:21.695Z,0.00
2022-10-01T03:28:21.753Z,0.00
2022-10-01T03:29:21.670Z,0.00
2022-10-01T03:30:21.668Z,0.00
2022-10-01T03:31:21.751Z,0.00
2022-10-01T03:32:21.652Z,0.00
2022-10-01T03:33:21.627Z,0.00
2022-10-01T03:34:21.623Z,0.00
2022-10-01T03:35:21.622Z,0.00
2022-10-01T03:36:21.632Z,0.00
2022-10-01T03:37:21.656Z,0.00
2022-10-01T03:38:21.594Z,0.00
2022-10-01T03:39:21.574Z,0.00
2022-10-01T03:40:21.566Z,0.00
2022-10-01T03:41:21.543Z,0.00
2022-10-01T03:42:21.538Z,0.00
2022-10-01T03:43:21.528Z,0.00
2022-10-01T03:44:21.523Z,0.00
2022-10-01T03:45:21.604Z,0.00
2022-10-01T03:46:21.559Z,0.00
2022-10-01T03:47:21.490Z,0.00
2022-10-01T03:48:21.476Z,0.00
2022-10-01T03:49:21.604Z,0.00
2022-10-01T03:50:21.449Z,0.00
2022-10-01T03:51:21.435Z,0.00
2022-10-01T03:52:21.455Z,0.00
2022-10-01T03:53:21.412Z,0.00
2022-10-01T03:54:21.459Z,0.00
2022-10-01T03:55:21.393Z,0.00
2022-10-01T03:56:21.381Z,0.00
2022-10-01T03:57:21.368Z,0.00
2022-10-01T03:58:21.365Z,0.00
2022-10-01T03:59:21.360Z,0.00
2022-10-01T04:00:21.446Z,0.00
2022-10-01T04:01:21.389Z,0.00
2022-10-01T04:02:21.440Z,0.00
2022-10-01T04:03:21.308Z,0.00
2022-10-01T04:04:21.306Z,0.00
2022-10-01T04:05:21.283Z,0.00
2022-10-01T04:06:21.372Z,0.00
2022-10-01T04:07:21.268Z,0.00
2022-10-01T04:08:24.368Z,0.00
2022-10-01T04:09:21.256Z,0.00
2022-10-01T04:10:21.230Z,0.00
2022-10-01T04:11:21.219Z,0.00
2022-10-01T04:12:21.322Z,0.00
2022-10-01T04:13:21.202Z,0.00
2022-10-01T04:14:21.196Z,0.00
2022-10-01T04:15:21.181Z,0.00
2022-10-01T04:16:21.315Z,0.00
2022-10-01T04:17:21.161Z,0.00
2022-10-01T04:18:21.210Z,0.00
2022-10-01T04:19:21.147Z,0.00
2022-10-01T04:20:21.120Z,0.00
2022-10-01T04:21:21.113Z,0.00
2022-10-01T04:22:21.104Z,0.00
2022-10-01T04:23:21.094Z,0.00
2022-10-01T04:24:21.158Z,0.00
2022-10-01T04:25:21.084Z,0.00
2022-10-01T04:26:21.070Z,0.00
2022-10-01T04:27:21.047Z,0.00
2022-10-01T04:28:21.245Z,0.00
2022-10-01T04:29:21.029Z,0.00
2022-10-01T04:30:21.122Z,0.00
2022-10-01T04:31:21.127Z,0.00
2022-10-01T04:32:20.992Z,0.00
2022-10-01T04:33:20.980Z,0.00
2022-10-01T04:34:20.972Z,0.00
2022-10-01T04:35:20.963Z,0.00
2022-10-01T04:36:20.985Z,0.00
2022-10-01T04:37:20.952Z,0.00
2022-10-01T04:38:20.935Z,0.00
2022-10-01T04:39:20.916Z,0.00
2022-10-01T04:40:20.932Z,0.00
2022-10-01T04:41:20.900Z,0.00
2022-10-01T04:42:21.002Z,0.00
2022-10-01T04:43:20.892Z,0.00
2022-10-01T04:44:20.869Z,0.00
2022-10-01T04:45:20.854Z,0.00
2022-10-01T04:46:20.925Z,0.00
2022-10-01T04:47:20.830Z,0.00
2022-10-01T04:48:20.884Z,0.00
2022-10-01T04:49:20.823Z,0.00
2022-10-01T04:50:20.812Z,0.00
2022-10-01T04:51:20.790Z,0.00
2022-10-01T04:52:20.784Z,0.00
2022-10-01T04:53:20.771Z,0.00
2022-10-01T04:54:20.853Z,0.00
2022-10-01T04:55:20.746Z,0.00
2022-10-01T04:56:20.778Z,0.00
2022-10-01T04:57:20.724Z,0.00
2022-10-01T04:58:20.726Z,0.00
2022-10-01T04:59:20.702Z,0.00
2022-10-01T05:00:20.725Z,0.00
2022-10-01T05:01:20.816Z,0.00
2022-10-01T05:02:20.765Z,0.00
2022-10-01T05:03:20.665Z,0.00
2022-10-01T05:04:20.651Z,0.00
2022-10-01T05:05:20.746Z,0.00
2022-10-01T05:06:20.695Z,0.00
2022-10-01T05:07:20.618Z,0.00
2022-10-01T05:08:20.608Z,0.00
2022-10-01T05:09:20.597Z,0.00
2022-10-01T05:10:20.586Z,5.62
2022-10-01T05:11:20.653Z,5.62
2022-10-01T05:12:24.418Z,11.25
2022-10-01T05:13:20.554Z,11.25
2022-10-01T05:14:20.542Z,11.25
2022-10-01T05:15:20.533Z,11.25
2022-10-01T05:16:20.645Z,11.25
2022-10-01T05:17:20.596Z,16.88
2022-10-01T05:18:20.506Z,16.88
2022-10-01T05:19:20.487Z,16.88
2022-10-01T05:20:20.487Z,16.88
2022-10-01T05:21:20.482Z,22.50
2022-10-01T05:22:20.484Z,22.50
2022-10-01T05:23:20.517Z,22.50
2022-10-01T05:24:20.438Z,22.50
2022-10-01T05:25:20.445Z,22.50
2022-10-01T05:26:20.412Z,22.50
2022-10-01T05:27:20.401Z,22.50
2022-10-01T05:28:22.644Z,22.50
2022-10-01T05:29:20.446Z,22.50
2022-10-01T05:30:20.381Z,22.50
2022-10-01T05:31:20.487Z,28.12
2022-10-01T05:32:20.369Z,28.12
2022-10-01T05:33:20.354Z,28.12
2022-10-01T05:34:20.334Z,28.12
2022-10-01T05:35:20.449Z,33.75
2022-10-01T05:36:20.308Z,33.75
2022-10-01T05:37:20.317Z,33.75
2022-10-01T05:38:20.295Z,33.75
2022-10-01T05:39:20.274Z,39.38
2022-10-01T05:40:20.268Z,39.38
2022-10-01T05:41:20.346Z,39.38
2022-10-01T05:42:20.239Z,45.00
2022-10-01T05:43:20.245Z,45.00
2022-10-01T05:44:20.246Z,45.00
2022-10-01T05:45:20.210Z,50.62
2022-10-01T05:46:20.207Z,56.25
2022-10-01T05:47:20.281Z,56.25
2022-10-01T05:48:20.190Z,61.88
2022-10-01T05:49:20.168Z,61.88
2022-10-01T05:50:20.157Z,61.88
2022-10-01T05:51:20.146Z,61.88
2022-10-01T05:52:20.134Z,67.50
2022-10-01T05:53:20.180Z,67.50
2022-10-01T05:54:20.134Z,73.12
2022-10-01T05:55:20.098Z,78.75
2022-10-01T05:56:20.090Z,78.75
2022-10-01T05:57:20.079Z,84.38
2022-10-01T05:58:20.072Z,90.00
2022-10-01T05:59:20.137Z,95.62
2022-10-01T06:00:20.075Z,101.25
2022-10-01T06:01:20.036Z,101.25
2022-10-01T06:02:20.189Z,106.88
2022-10-01T06:03:20.038Z,112.50
2022-10-01T06:04:20.004Z,118.12
2022-10-01T06:05:20.089Z,118.12
2022-10-01T06:06:19.996Z,118.12
2022-10-01T06:07:19.969Z,118.12
2022-10-01T06:08:19.957Z,123.75
2022-10-01T06:09:19.946Z,123.75
2022-10-01T06:10:19.941Z,129.38
2022-10-01T06:11:20.009Z,129.38
2022-10-01T06:12:20.178Z,135.00
2022-10-01T06:13:19.903Z,135.00
2022-10-01T06:14:19.890Z,135.00
2022-10-01T06:15:19.884Z,140.62
2022-10-01T06:16:19.943Z,140.62
2022-10-01T06:17:19.916Z,140.62
2022-10-01T06:18:19.861Z,140.62
2022-10-01T06:19:19.838Z,140.62
2022-10-01T06:20:19.829Z,146.25
2022-10-01T06:21:19.816Z,146.25
2022-10-01T06:22:19.807Z,146.25
2022-10-01T06:23:19.889Z,146.25
2022-10-01T06:24:19.809Z,146.25
2022-10-01T06:25:19.776Z,146.25
2022-10-01T06:26:19.812Z,140.62
2022-10-01T06:27:19.811Z,140.62
2022-10-01T06:28:19.794Z,140.62
2022-10-01T06:29:19.780Z,140.62
2022-10-01T06:30:19.732Z,140.62
2022-10-01T06:31:19.838Z,140.62
2022-10-01T06:32:19.720Z,140.62
2022-10-01T06:33:19.689Z,140.62
2022-10-01T06:34:19.675Z,146.25
2022-10-01T06:35:19.675Z,151.88
2022-10-01T06:36:19.660Z,151.88
2022-10-01T06:37:19.656Z,157.50
2022-10-01T06:38:19.633Z,163.12
2022-10-01T06:39:19.634Z,168.75
2022-10-01T06:40:19.610Z,168.75
2022-10-01T06:41:19.693Z,174.38
2022-10-01T06:42:19.590Z,174.38
2022-10-01T06:43:19.581Z,174.38
2022-10-01T06:44:19.585Z,174.38
2022-10-01T06:45:19.561Z,174.38
2022-10-01T06:46:19.661Z,174.38
2022-10-01T06:47:19.546Z,180.00
2022-10-01T06:48:19.550Z,180.00
2022-10-01T06:49:19.524Z,180.00
2022-10-01T06:50:19.516Z,185.62
2022-10-01T06:51:19.497Z,191.25
2022-10-01T06:52:19.549Z,191.25
2022-10-01T06:53:19.473Z,196.88
2022-10-01T06:54:19.477Z,196.88
2022-10-01T06:55:19.548Z,196.88
2022-10-01T06:56:19.443Z,196.88
2022-10-01T06:57:19.430Z,196.88
2022-10-01T06:58:19.417Z,196.88
2022-10-01T06:59:19.410Z,196.88
2022-10-01T07:00:19.494Z,196.88
2022-10-01T07:01:19.430Z,196.88
2022-10-01T07:02:19.454Z,196.88
2022-10-01T07:03:19.365Z,196.88
2022-10-01T07:04:19.376Z,196.88
2022-10-01T07:05:19.342Z,196.88
2022-10-01T07:06:19.430Z,202.50
2022-10-01T07:07:19.321Z,202.50
2022-10-01T07:08:19.309Z,208.12
2022-10-01T07:09:19.297Z,208.12
2022-10-01T07:10:19.301Z,208.12
2022-10-01T07:11:19.278Z,208.12
2022-10-01T07:12:19.334Z,208.12
2022-10-01T07:13:19.269Z,208.12
2022-10-01T07:14:19.248Z,208.12
2022-10-01T07:15:19.238Z,208.12
2022-10-01T07:16:19.252Z,208.12
2022-10-01T07:17:19.214Z,208.12
2022-10-01T07:18:19.260Z,208.12
2022-10-01T07:19:19.204Z,213.75
2022-10-01T07:20:19.212Z,219.38
2022-10-01T07:21:19.174Z,219.38
2022-10-01T07:22:19.167Z,225.00
2022-10-01T07:23:19.161Z,225.00
2022-10-01T07:24:19.143Z,225.00
2022-10-01T07:25:19.197Z,219.38
2022-10-01T07:26:19.115Z,219.38
2022-10-01T07:27:19.106Z,219.38
2022-10-01T07:28:19.281Z,219.38
2022-10-01T07:29:19.080Z,219.38
2022-10-01T07:30:19.075Z,219.38
2022-10-01T07:31:19.222Z,219.38
2022-10-01T07:32:19.049Z,219.38
2022-10-01T07:33:19.052Z,219.38
2022-10-01T07:34:19.041Z,213.75
2022-10-01T07:35:19.017Z,213.75
2022-10-01T07:36:19.035Z,213.75
2022-10-01T07:37:19.023Z,208.12
2022-10-01T07:38:19.004Z,202.50
2022-10-01T07:39:18.976Z,196.88
2022-10-01T07:40:18.981Z,191.25
2022-10-01T07:41:18.954Z,185.62
2022-10-01T07:42:18.945Z,180.00
2022-10-01T07:43:18.990Z,180.00
2022-10-01T07:44:18.932Z,180.00
2022-10-01T07:45:18.910Z,174.38
2022-10-01T07:46:18.976Z,174.38
2022-10-01T07:47:18.893Z,168.75
2022-10-01T07:48:18.891Z,168.75
2022-10-01T07:49:18.944Z,163.12
2022-10-01T07:50:18.859Z,163.12
2022-10-01T07:51:18.845Z,163.12
2022-10-01T07:52:18.860Z,157.50
2022-10-01T07:53:18.828Z,157.50
2022-10-01T07:54:18.826Z,151.88
2022-10-01T07:55:18.928Z,151.88
2022-10-01T07:56:18.805Z,146.25
2022-10-01T07:57:18.786Z,146.25
2022-10-01T07:58:18.834Z,146.25
2022-10-01T07:59:18.772Z,140.62
2022-10-01T08:00:18.750Z,140.62
2022-10-01T08:01:18.798Z,140.62
2022-10-01T08:02:18.828Z,146.25
2022-10-01T08:03:18.720Z,146.25
2022-10-01T08:04:18.709Z,146.25
2022-10-01T08:05:18.709Z,146.25
2022-10-01T08:06:22.018Z,146.25
2022-10-01T08:07:19.678Z,146.25
2022-10-01T08:08:18.686Z,146.25
2022-10-01T08:09:18.653Z,146.25
2022-10-01T08:10:18.657Z,146.25
2022-10-01T08:11:18.630Z,146.25
2022-10-01T08:12:18.618Z,151.88
2022-10-01T08:13:18.641Z,151.88
2022-10-01T08:14:18.600Z,151.88
2022-10-01T08:15:18.591Z,151.88
2022-10-01T08:16:18.755Z,151.88
2022-10-01T08:17:18.569Z,151.88
2022-10-01T08:18:18.554Z,151.88
2022-10-01T08:19:18.641Z,151.88
2022-10-01T08:20:18.535Z,151.88
2022-10-01T08:21:18.525Z,151.88
2022-10-01T08:22:18.665Z,151.88
2022-10-01T08:23:18.499Z,157.50
2022-10-01T08:24:18.520Z,157.50
2022-10-01T08:25:18.519Z,157.50
2022-10-01T08:26:18.468Z,157.50
2022-10-01T08:27:18.456Z,163.12
2022-10-01T08:28:18.531Z,163.12
2022-10-01T08:29:18.439Z,168.75
2022-10-01T08:30:18.466Z,168.75
2022-10-01T08:31:18.453Z,174.38
2022-10-01T08:32:18.405Z,174.38
2022-10-01T08:33:18.506Z,180.00
2022-10-01T08:34:18.380Z,185.62
2022-10-01T08:35:18.373Z,191.25
2022-10-01T08:36:18.425Z,196.88
2022-10-01T08:37:18.351Z,202.50
2022-10-01T08:38:18.338Z,208.12
2022-10-01T08:39:18.337Z,213.75
2022-10-01T08:40:18.345Z,225.00
2022-10-01T08:41:23.029Z,236.25
2022-10-01T08:42:19.361Z,247.50
2022-10-01T08:43:18.284Z,264.38
2022-10-01T08:44:18.284Z,275.62
2022-10-01T08:45:18.267Z,286.88
2022-10-01T08:46:18.341Z,286.88
2022-10-01T08:47:18.242Z,298.12
2022-10-01T08:48:18.262Z,303.75
2022-10-01T08:49:18.221Z,315.00
2022-10-01T08:50:18.222Z,331.88
2022-10-01T08:51:18.202Z,343.12
2022-10-01T08:52:18.188Z,354.38
2022-10-01T08:53:18.178Z,360.00
2022-10-01T08:54:18.173Z,360.00
2022-10-01T08:55:18.164Z,365.62
2022-10-01T08:56:18.179Z,371.25
2022-10-01T08:57:18.131Z,376.88
2022-10-01T08:58:18.122Z,376.88
2022-10-01T08:59:18.118Z,371.25
2022-10-01T09:00:18.107Z,360.00
2022-10-01T09:01:18.171Z,365.62
2022-10-01T09:02:18.087Z,382.50
2022-10-01T09:03:18.070Z,399.38
2022-10-01T09:04:18.113Z,416.25
2022-10-01T09:05:18.048Z,421.88
2022-10-01T09:06:18.079Z,438.75
2022-10-01T09:07:18.059Z,427.50
2022-10-01T09:08:18.018Z,427.50
2022-10-01T09:09:18.003Z,433.12
2022-10-01T09:10:17.990Z,438.75
2022-10-01T09:11:17.981Z,450.00
2022-10-01T09:12:18.050Z,450.00
2022-10-01T09:13:17.972Z,438.75
2022-10-01T09:14:17.948Z,427.50
2022-10-01T09:15:17.936Z,416.25
2022-10-01T09:16:18.010Z,405.00
2022-10-01T09:17:17.923Z,399.38
2022-10-01T09:18:17.962Z,388.12
2022-10-01T09:19:17.893Z,382.50
2022-10-01T09:20:18.011Z,365.62
2022-10-01T09:21:17.875Z,354.38
2022-10-01T09:22:17.871Z,343.12
2022-10-01T09:23:17.860Z,326.25
2022-10-01T09:24:17.871Z,309.38
2022-10-01T09:25:17.835Z,303.75
2022-10-01T09:26:20.387Z,303.75
2022-10-01T09:27:17.813Z,303.75
2022-10-01T09:28:17.905Z,292.50
2022-10-01T09:29:17.796Z,275.62
2022-10-01T09:30:17.850Z,298.12
2022-10-01T09:31:17.844Z,309.38
2022-10-01T09:32:17.749Z,309.38
2022-10-01T09:33:17.750Z,303.75
2022-10-01T09:34:17.736Z,315.00
2022-10-01T09:35:17.720Z,326.25
2022-10-01T09:36:17.741Z,337.50
2022-10-01T09:37:17.697Z,354.38
2022-10-01T09:38:17.686Z,360.00
2022-10-01T09:39:17.678Z,360.00
2022-10-01T09:40:17.667Z,371.25
2022-10-01T09:41:17.653Z,388.12
2022-10-01T09:42:17.702Z,388.12
2022-10-01T09:43:17.635Z,376.88
2022-10-01T09:44:18.869Z,365.62
2022-10-01T09:45:17.617Z,360.00
2022-10-01T09:46:17.792Z,388.12
2022-10-01T09:47:17.631Z,388.12
2022-10-01T09:48:17.614Z,388.12
2022-10-01T09:49:17.567Z,393.75
2022-10-01T09:50:17.556Z,393.75
2022-10-01T09:51:17.546Z,399.38
2022-10-01T09:52:17.544Z,410.62
2022-10-01T09:53:17.527Z,438.75
2022-10-01T09:54:17.606Z,433.12
2022-10-01T09:55:17.501Z,399.38
2022-10-01T09:56:17.500Z,466.88
2022-10-01T09:57:17.495Z,489.38
2022-10-01T09:58:17.469Z,489.38
2022-10-01T09:59:17.461Z,472.50
2022-10-01T10:00:17.518Z,461.25
2022-10-01T10:01:17.435Z,461.25
2022-10-01T10:02:17.671Z,455.62
2022-10-01T10:03:17.641Z,455.62
2022-10-01T10:04:20.020Z,444.38
2022-10-01T10:05:17.399Z,438.75
2022-10-01T10:06:17.466Z,393.75
2022-10-01T10:07:17.377Z,343.12
2022-10-01T10:08:17.372Z,309.38
2022-10-01T10:09:17.347Z,320.62
2022-10-01T10:10:18.616Z,348.75
2022-10-01T10:11:17.337Z,365.62
2022-10-01T10:12:17.354Z,376.88
2022-10-01T10:13:17.315Z,376.88
2022-10-01T10:14:17.299Z,388.12
2022-10-01T10:15:17.286Z,360.00
2022-10-01T10:16:17.366Z,315.00
2022-10-01T10:17:17.278Z,286.88
2022-10-01T10:18:21.553Z,270.00
2022-10-01T10:19:18.242Z,264.38
2022-10-01T10:20:17.228Z,281.25
2022-10-01T10:21:17.221Z,309.38
2022-10-01T10:22:17.223Z,337.50
2022-10-01T10:23:17.200Z,348.75
2022-10-01T10:24:17.256Z,348.75
2022-10-01T10:25:17.179Z,348.75
2022-10-01T10:26:17.164Z,360.00
2022-10-01T10:27:17.168Z,405.00
2022-10-01T10:28:17.296Z,421.88
2022-10-01T10:29:17.140Z,393.75
2022-10-01T10:30:17.156Z,354.38
2022-10-01T10:31:17.188Z,331.88
2022-10-01T10:32:17.127Z,315.00
2022-10-01T10:33:17.102Z,309.38
2022-10-01T10:34:17.088Z,315.00
2022-10-01T10:35:17.072Z,331.88
2022-10-01T10:36:17.073Z,354.38
2022-10-01T10:37:17.259Z,371.25
2022-10-01T10:38:17.060Z,382.50
2022-10-01T10:39:17.030Z,399.38
2022-10-01T10:40:17.018Z,421.88
2022-10-01T10:41:17.021Z,421.88
2022-10-01T10:42:17.075Z,438.75
2022-10-01T10:43:17.007Z,444.38
2022-10-01T10:44:16.977Z,427.50
2022-10-01T10:45:16.993Z,427.50
2022-10-01T10:46:16.986Z,427.50
2022-10-01T10:47:16.954Z,410.62
2022-10-01T10:48:16.982Z,410.62
2022-10-01T10:49:16.922Z,416.25
2022-10-01T10:50:16.915Z,405.00
2022-10-01T10:51:16.899Z,399.38
2022-10-01T10:52:16.891Z,410.62
2022-10-01T10:53:17.099Z,427.50
2022-10-01T10:54:16.969Z,416.25
2022-10-01T10:55:16.858Z,399.38
2022-10-01T10:56:16.846Z,410.62
2022-10-01T10:57:16.838Z,438.75
2022-10-01T10:58:16.930Z,450.00
2022-10-01T10:59:16.814Z,433.12
2022-10-01T11:00:16.838Z,427.50
2022-10-01T11:01:16.867Z,416.25
2022-10-01T11:02:17.087Z,393.75
2022-10-01T11:03:16.774Z,388.12
2022-10-01T11:04:16.802Z,410.62
2022-10-01T11:05:16.756Z,416.25
2022-10-01T11:06:16.850Z,438.75
2022-10-01T11:07:16.736Z,416.25
2022-10-01T11:08:17.900Z,382.50
2022-10-01T11:09:16.711Z,405.00
2022-10-01T11:10:16.698Z,444.38
2022-10-01T11:11:16.697Z,444.38
2022-10-01T11:12:16.698Z,444.38
2022-10-01T11:13:16.664Z,461.25
2022-10-01T11:14:20.203Z,495.00
2022-10-01T11:15:17.643Z,528.75
2022-10-01T11:16:16.727Z,528.75
2022-10-01T11:17:16.628Z,517.50
2022-10-01T11:18:16.623Z,500.62
2022-10-01T11:19:16.610Z,466.88
2022-10-01T11:20:20.580Z,450.00
2022-10-01T11:21:16.583Z,444.38
2022-10-01T11:22:16.575Z,405.00
2022-10-01T11:23:16.565Z,354.38
2022-10-01T11:24:16.557Z,326.25
2022-10-01T11:25:16.564Z,331.88
2022-10-01T11:26:16.561Z,382.50
2022-10-01T11:27:16.530Z,416.25
2022-10-01T11:28:16.635Z,405.00
2022-10-01T11:29:16.507Z,382.50
2022-10-01T11:30:16.536Z,388.12
2022-10-01T11:31:16.726Z,433.12
2022-10-01T11:32:16.462Z,444.38
2022-10-01T11:33:16.517Z,376.88
2022-10-01T11:34:16.446Z,348.75
2022-10-01T11:35:16.443Z,382.50
2022-10-01T11:36:16.468Z,444.38
2022-10-01T11:37:16.411Z,495.00
2022-10-01T11:38:16.400Z,562.50
2022-10-01T11:39:16.390Z,590.62
2022-10-01T11:40:16.386Z,579.38
2022-10-01T11:41:16.391Z,641.25
2022-10-01T11:42:16.354Z,725.62
2022-10-01T11:43:16.359Z,759.38
2022-10-01T11:44:16.331Z,939.38
2022-10-01T11:45:16.317Z,815.62
2022-10-01T11:46:16.377Z,866.25
2022-10-01T11:47:16.375Z,663.75
2022-10-01T11:48:16.288Z,579.38
2022-10-01T11:49:16.276Z,562.50
2022-10-01T11:50:16.274Z,506.25
2022-10-01T11:51:16.249Z,466.88
2022-10-01T11:52:16.265Z,433.12
2022-10-01T11:53:16.280Z,427.50
2022-10-01T11:54:16.218Z,376.88
2022-10-01T11:55:16.205Z,348.75
2022-10-01T11:56:16.198Z,376.88
2022-10-01T11:57:16.189Z,354.38
2022-10-01T11:58:16.186Z,348.75
2022-10-01T11:59:16.241Z,393.75
2022-10-01T12:00:16.166Z,433.12
2022-10-01T12:01:16.137Z,444.38
2022-10-01T12:02:16.217Z,455.62
2022-10-01T12:03:16.134Z,438.75
2022-10-01T12:04:16.107Z,421.88
2022-10-01T12:05:16.159Z,421.88
2022-10-01T12:06:16.083Z,427.50
2022-10-01T12:07:16.073Z,421.88
2022-10-01T12:08:16.088Z,421.88
2022-10-01T12:09:16.063Z,410.62
2022-10-01T12:10:16.044Z,416.25
2022-10-01T12:11:16.105Z,421.88
2022-10-01T12:12:16.022Z,405.00
2022-10-01T12:13:16.015Z,399.38
2022-10-01T12:14:15.997Z,421.88
2022-10-01T12:15:15.998Z,433.12
2022-10-01T12:16:16.191Z,455.62
2022-10-01T12:17:16.002Z,455.62
2022-10-01T12:18:15.955Z,461.25
2022-10-01T12:19:15.953Z,421.88
2022-10-01T12:20:15.936Z,382.50
2022-10-01T12:21:15.928Z,382.50
2022-10-01T12:22:15.908Z,393.75
2022-10-01T12:23:15.913Z,382.50
2022-10-01T12:24:15.912Z,376.88
2022-10-01T12:25:15.879Z,331.88
2022-10-01T12:26:15.864Z,331.88
2022-10-01T12:27:15.865Z,331.88
2022-10-01T12:28:15.915Z,331.88
2022-10-01T12:29:15.914Z,348.75
2022-10-01T12:30:15.823Z,348.75
2022-10-01T12:31:15.836Z,320.62
2022-10-01T12:32:15.862Z,281.25
2022-10-01T12:33:15.788Z,258.75
2022-10-01T12:34:15.786Z,275.62
2022-10-01T12:35:15.835Z,303.75
2022-10-01T12:36:15.761Z,320.62
2022-10-01T12:37:15.747Z,315.00
2022-10-01T12:38:15.747Z,331.88
2022-10-01T12:39:15.728Z,348.75
2022-10-01T12:40:15.731Z,354.38
2022-10-01T12:41:15.794Z,360.00
2022-10-01T12:42:15.905Z,365.62
2022-10-01T12:43:15.684Z,376.88
2022-10-01T12:44:15.671Z,416.25
2022-10-01T12:45:15.667Z,433.12
2022-10-01T12:46:15.725Z,455.62
2022-10-01T12:47:15.656Z,472.50
2022-10-01T12:48:15.726Z,489.38
2022-10-01T12:49:15.613Z,556.88